Date,TemperatureHighF,TemperatureAvgF,TemperatureLowF,DewpointHighF,DewpointAvgF,DewpointLowF,HumidityHigh,HumidityAvg,HumidityLow,PressureMaxIn,PressureMinIn,WindSpeedMaxMPH,WindSpeedAvgMPH,GustSpeedMaxMPH,PrecipitationSumIn
2013-1-1,50.4,45.8,40.0,50.0,43.7,33.8,100,93,58,30.10,29.94,6,1,6,1.19
2013-1-2,46.1,38.8,36.8,45.3,36.9,34.5,97,93,85,30.18,29.97,7,0,7,0.03
2013-1-3,44.7,35.3,28.2,34.8,31.4,25.7,92,86,60,30.38,30.15,5,0,5,0.00
2013-1-4,45.8,33.0,23.2,31.0,25.6,21.1,95,76,46,30.44,30.34,7,1,10,0.00
2013-1-5,48.0,35.6,25.4,37.4,28.9,22.4,92,77,47,30.41,30.24,10,1,10,0.04
2013-1-6,47.4,40.6,36.6,41.2,36.9,29.4,96,87,68,30.30,30.13,10,1,12,0.06
2013-1-7,52.3,38.1,28.1,36.5,30.9,25.5,92,77,53,30.39,30.28,13,1,13,0.01
2013-1-8,57.4,47.3,42.1,42.3,36.0,30.0,88,65,53,30.37,30.25,22,2,22,0.00
2013-1-9,52.7,48.7,42.6,50.3,46.1,39.1,95,91,85,30.42,30.30,11,1,12,0.02
2013-1-10,71.7,58.5,47.8,58.4,51.5,46.0,94,79,60,30.41,30.08,32,4,33,0.00
2013-1-11,69.8,65.9,63.4,63.1,60.6,55.4,96,83,73,30.09,30.00,20,4,27,0.04
2013-1-12,72.3,68.2,64.2,65.3,62.4,58.7,96,82,72,30.07,29.94,14,3,15,0.04
2013-1-13,71.0,67.5,61.1,61.7,59.5,57.2,97,76,66,29.99,29.88,25,5,25,1.47
2013-1-14,61.2,43.9,38.1,60.2,42.7,36.8,100,96,94,30.25,29.97,13,1,13,2.51
2013-1-15,43.7,41.5,38.6,42.9,40.7,37.5,97,97,96,30.17,29.95,11,1,13,1.94
2013-1-16,49.2,45.1,42.7,48.7,44.4,41.6,100,97,95,30.05,29.89,7,1,7,0.37
2013-1-17,43.5,38.6,31.2,42.7,37.4,29.7,97,95,91,30.34,29.70,36,3,36,1.10
2013-1-18,49.2,36.6,28.0,35.4,30.7,26.8,96,81,50,30.53,30.34,7,1,7,0.01
2013-1-19,54.4,39.6,27.6,37.6,30.8,26.1,96,74,40,30.43,30.19,14,2,14,0.00
2013-1-20,58.1,44.8,33.8,39.8,34.1,29.8,87,67,46,30.20,30.09,9,1,9,0.00
2013-1-21,49.7,36.9,27.6,35.6,24.4,14.6,95,66,33,30.24,30.09,13,2,13,0.01
2013-1-22,36.5,29.5,21.5,16.5,10.5,5.0,63,46,31,30.37,30.22,9,1,10,0.00
2013-1-23,48.1,37.2,28.1,32.8,20.5,8.1,72,51,39,30.39,30.13,15,1,15,0.00
2013-1-24,43.5,36.6,27.4,36.9,20.9,8.4,80,55,29,30.39,30.16,13,2,14,0.00
2013-1-25,35.5,33.1,27.6,34.1,26.5,10.5,96,78,44,30.36,30.11,23,2,23,0.19
2013-1-26,50.3,39.3,32.7,36.4,32.7,27.9,96,79,51,30.33,30.18,10,1,11,0.00
2013-1-27,51.4,39.7,28.5,40.1,33.3,27.0,95,79,54,30.44,30.29,22,2,22,0.00
2013-1-28,57.7,51.4,44.7,51.2,42.6,32.3,86,72,53,30.35,30.19,16,2,16,0.00
2013-1-29,68.3,57.6,43.8,61.3,52.8,42.2,97,84,72,30.20,29.83,24,3,24,0.01
2013-1-30,72.1,59.6,41.5,64.4,55.1,36.4,96,86,72,29.83,29.48,33,7,37,2.45
2013-1-31,47.1,39.4,33.6,36.3,26.9,24.1,88,62,42,30.08,29.72,18,4,23,0.01